LiveATC.Net - Listen to live air traffic control over the Internet!

Airport/ARTCC Code
Frequency Search
(e.g., 124.400, 128.75)
Site-wide search
 


Browse Feeds
Top 50 Feeds
HF Oceanic Feeds
Coverage Map
Bad Weather Areas

LiveATC FAQ
Offer LiveATC feed
Contact LiveATC.net
Press Inquiries

LiveATC on iPhone
LiveATC on Android

Windows Phone
Windows 8/10

LiveATC Mobile
(Mobile browser)

ATC Audio Archives
Interesting Recordings

LiveATC Forums

Home Page
About LiveATC.net
Make a Donation
Terms of Use
Privacy Policy

Canadian Air Freqs

AIRMETs/SIGMETs

FAA Airport Status
NAS Status
Arrival Demand


Server Software By:
Icecast.org
Liquidsoap


Current Potentially Bad Weather Airports
(updated every 30 minutes - sorted alphabetically by ICAO code)



This page lists LiveATC.net airport areas that may be interesting to listen to because of challenging flying (weather) conditions. Challenging weather conditions include low ceilings, limited visibility, high or gusty winds, or thunderstorms.

Updated: Mon Sep 27 21:40:01 UTC 2021
Click on airport name to go to that airport area's feeds.

CYSC AWOS Sherbrooke Airport (Sherbrooke, CA-QC)
WX MAP UNAVAILABLENearest METAR:
CYSC 272121Z AUTO 25005KT 200V260 6SM -RA BR BKN004 OVC009 14/13 A2972 RMK SLP069 DENSITY ALT 1100FT
KBOK/KCEC CTAF Brookings Airport (Brookings, US-OR)
kbokNearest METAR:
KBOK 272056Z AUTO 15006KT 1/4SM RA FG OVC003 13/13 A2998 RMK AO2 SLP153 P0008 60026 T01330133 50002
KBTR/KHZR/L38 Del/Gnd/Twr/App/CTAF Baton Rouge Metropolitan Airport - Ryan Field (Baton Rouge, US-LA)
khzrNearest METAR:
KHZR 272115Z AUTO 14004KT 10SM OVC048 29/22 A3000 RMK AO2 LTG DSNT S T02860217
KBXK CTAF Buckeye Municipal Airport (Buckeye, US-AZ)
kbxkNearest METAR:
KBXK 272115Z AUTO 13005KT M1/4SM HZ 28/16 A2992 RMK A01
KCOS Gnd/Twr/App/Dep City of Colorado Springs Municipal Airport (Colorado Springs, US-CO)
kcosNearest METAR:
KCOS 272054Z 12020G30KT 10SM SCT120 BKN160 BKN240 29/M03 A3004 RMK AO2 PK WND 13030/2048 SLP075 VIRGA SW-NW T02941028 58019
KCRQ Tower Mc Clellan-Palomar Airport (Carlsbad, US-CA)
kcrqNearest METAR:
KCRQ 272053Z VRB04KT 10SM BR OVC009 18/15 A3001 RMK AO2 CIG 007V012 SLP161 T01830150 58009
KMYF Tower Montgomery Field Airport (San Diego, US-CA)
kmyfNearest METAR:
KMYF 272104Z 27008KT 10SM OVC009 19/16 A3002 RMK AO2 RAE03 CIG 007V012 P0000 T01890161
KPDT Gnd/Twr/App Eastern Oregon Regional Airport at Pendleton (Pendleton, US-OR)
kpdtNearest METAR:
KPDT 272053Z 28021G32KT 10SM FEW070 OVC095 19/08 A2979 RMK AO2 PK WND 26032/2044 SLP075 60000 T01890083 53001
KPRC Practice Area Ernest A. Love Field Airport (Prescott, US-AZ)
kprcNearest METAR:
KPRC 272053Z VRB03KT 10SM FEW030 SCT039 SCT046 21/12 A3012 RMK AO2 LTG DSNT NW SLP136 T02060122 58016
KPSO CTAF/Guard Stevens Field Airport (Pagosa Springs, US-CO)
kpsoNearest METAR:
KPSO 272115Z AUTO 20005KT 10SM BKN100 OVC120 17/08 A3019 RMK AO2 LTG DSNT E AND SE T01650079
KDMA/KTUS Twr/Ops/ZAB Davis Monthan Air Force Base (Tucson, US-AZ)
kdmaNearest METAR:
KDMA 272058Z 04003KT 10SM SCT070 BKN090 OVC110 27/09 A3001 RMK AO2A SLP113 ALSTG/SLP ESTMD T02720092 57019 RVRNO $
LJMB Tower Maribor Edvard Rusjan Airport (Maribor, Slovenia)
WX MAP UNAVAILABLENearest METAR:
LJMB 272100Z AUTO 34002KT 0100 R32/0600D FG VV004 13/13 Q1019
MHLC Gnd/Twr/Center Goloson International Airport (La Ceiba, Honduras)
WX MAP UNAVAILABLENearest METAR:
MHLC 272110Z 10010KT 4000 +TSRA SCT025TCU FEW028CB BKN070 27/22 Q1012 A2989 TEMPO 6000
MMMX Twr/App Licenciado Benito Juarez International Airport (Mexico City, Mexico)
WX MAP UNAVAILABLENearest METAR:
MMMX 272042Z 22012KT 10SM BKN025TCU BKN220 23/10 A3027 TEMPO FM2200 2SM TSRA RMK SLP079 57026 957 8/203 HZY CB PCPN SSW WNW AC
Panama Approach #1 Marcos A Gelabert International Airport (Panama City, Panama)
WX MAP UNAVAILABLENearest METAR:
MPTO 272125Z 32009KT 9000 -TSRA SCT008 SCT016CB BKN090 25/23 Q1009 RWY DAMP
SABE Gnd/Twr/App Aeroparque Jorge Newbery (Buenos Aires, Argentina)
WX MAP UNAVAILABLENearest METAR:
SABE 272121Z 14012KT 8000 OVC009 13/11 Q1018 NOSIG
SUAA Tower Angel S. Adami Airport (Montevideo, Uruguay)
WX MAP UNAVAILABLENearest METAR:
SUAA 272100Z 13015KT 9999 OVC008 14/12 Q1018
SUMU Twr/App/Radar Carrasco General Cesareo L. Berisso International Airport (Montevideo, Uruguay)
WX MAP UNAVAILABLENearest METAR:
SUMU 272100Z 13017KT 9999 OVC006 15/12 Q1018 NOSIG
TTPP Piarco Approach Piarco International Airport (Port of Spain, Trinidad and Tobago)
WX MAP UNAVAILABLENearest METAR:
TTPP 272100Z 08003KT 9999 -TSRA VCSH FEW010CB 26/23 Q1011 NOSIG RMK CB NW VCSH NE/ E